首页
METAR-TAF:

METAR-TAF

机场 :

劳德代尔堡-好莱坞国际机场

劳德代尔堡, 佛罗里达州, 美国

纬度: 26-04-05N, 经度: 080-09-09W, 海拔: 3米

当前天气观测

该预报发布于46分钟前的17:53 UTC
风速11节,风向东南
温度 33°C
湿度 59%
气压 1014 hPa
能見度: 16.1公里
少量云层高于3600英尺
散云层高于4400英尺
多云层高于25000英尺

METAR: KFLL 041753Z 14011KT 10SM FEW036 SCT044 BKN250 33/24 A2994 RMK AO2 SLP139 T03280244 10339 20272 58009

时间: 14:39 (18:39 UTC)

预报

该预报发布于1小时和19分钟前的17:20 UTC
预报有效从04日的 18点(UTC)到 05日的 24点(UTC)
风速11节,风向东南
能見度: 10公里
散云层高于3000英尺, 积雨云.
多云层高于6000英尺
多云层高于25000英尺
附近有雷暴
从 05日的 0000点(UTC)
风速7节,风向西转西南
能見度: 10公里
散云层高于3500英尺
散云层高于7000英尺
多云层高于25000英尺
从 05日的 0300点(UTC)
风速4节,风向多变
能見度: 10公里
少量云层高于4000英尺
散云层高于25000英尺
从 05日的 1600点(UTC)
风速8节,风向南转南东
能見度: 10公里
散云层高于4000英尺
散云层高于25000英尺
从 05日的 1900点(UTC)
风速11节,风向东南
能見度: 10公里
散云层高于3000英尺, 积雨云.
多云层高于6000英尺
多云层高于25000英尺
附近有雷暴

TAF: KFLL 041720Z 0418/0524 14011KT P6SM VCTS SCT030CB BKN060 BKN250 FM050000 25007KT P6SM SCT035 SCT070 BKN250 FM050300 VRB04KT P6SM FEW040 SCT250 FM051600 16008KT P6SM SCT040 SCT250 FM051900 14011KT P6SM VCTS SCT030CB BKN060 BKN250

超过4000个机场的气象观测和天气预报(METAR&TAF报告)。

可查询的气象台以黄色和红色小点在地图上表示。

将鼠标移到小点上方,可查看气象台名称。

然后点击查看天气观测和预报。

如需切换地图:点击带黑十字的绿色按钮放大地图;点击带横线的绿色按钮缩小地图;或者点击绿色箭头查看邻近地区的地图。


METAR-TAF: